Aviation Digital Data Service (ADDS)

Output produced by METARs form (1838 UTC 18 June 2019)
found at http://www.aviationweather.gov/metar/data/
 
LHSM 181815Z AUTO 31003KT 9000 NSC 23/20 Q1015
TAF LHSM 181115Z 1812/1821 06005KT CAVOK 
     TEMPO 1812/1818 VRB20G30KT 3000 SHRA TSRA BKN030CB BKN060 
     PROB30 
     TEMPO 1812/1816 VRB30G42KT 1000 +TSRA BKN015CB BKN040
       
LHDC 181822Z AUTO 08005KT 050V110 9999 FEW044CB 24/18 Q1015
TAF LHDC 181715Z 1818/1903 09004KT 9999 SCT045 SCT100 
     TEMPO 1818/1820 VRB15G28KT 3000 TSRA SHRA BKN040CB BKN070 
     BECMG 1820/1823 6000 NSC 
     PROB40 1823/1903 3000 BR
       
LHBP 181830Z 13012KT 9999 VCTS FEW045CB FEW050 BKN220 24/19 Q1015 TEMPO -SHRA FEW045TCU BKN110
TAF LHBP 181715Z 1818/1918 VRB03KT CAVOK 
     TEMPO 1818/1824 6000 TSRA SCT035CB 
     TEMPO 1909/1918 VRB15G30KT 2000 TSRA TSGR FEW010 SCT025CB BKN060
       
LHKE 181815Z 33002KT 8000 -SHRA BKN040TCU BKN083 20/18 Q1015 BECMG NSW RMK BLU
TAF LHKE 181715Z 1818/1903 VRB03KT CAVOK 
     TEMPO 1818/1821 VRB20G30KT 5000 SHRA TSRA FEW010 SCT025CB BKN030TCU
       
LHPA 181815Z 00000KT CAVOK 23/18 Q1015 NOSIG RMK BLACK
TAF LHPA 181715Z 1818/1918 VRB03KT CAVOK 
     TEMPO 1818/1820 9999 FEW040 SCT200 
     PROB30 
     TEMPO 1901/1906 5000 BR MIBCFG NSC 
     BECMG 1906/1909 16005KT 9999 SCT025 
     PROB40 
     TEMPO 1910/1918 8000 SHRA SCT030TCU
       
LHSN 181815Z 30008KT 9999 FEW040TCU SCT083 23/19 Q1015 NOSIG RMK BLU
TAF LHSN 181715Z 1818/1903 VRB03KT 9999 SCT040 
     TEMPO 1818/1821 VRB20G30KT 5000 TSRA SHRA SCT040CB SCT050TCU 
     BECMG 1821/1823 CAVOK